Time;durP1;ratioP1;P1;durP2;ratioP2;P2;SDS_P1;SDS_P2;PMS_P1;PMS_P2;Temp;Humidity;BMP_temperature;BMP_pressure;BME280_temperature;BME280_humidity;BME280_pressure;Samples;Min_cycle;Max_cycle;Signal;HPM_P1;HPM_P2
2021/05/26 00:00:05;;;;;;;6.00;4.53;;;;;;;9.68;78.59;100458.91;5048159;28;20197;-69
2021/05/26 00:02:31;;;;;;;4.70;3.90;;;;;;;9.68;78.02;100458.91;5047075;28;20202;-69
2021/05/26 00:04:57;;;;;;;4.97;4.20;;;;;;;9.67;77.99;100451.88;5044653;28;20234;-68
2021/05/26 00:07:23;;;;;;;4.73;3.63;;;;;;;9.68;78.69;100445.59;5051069;28;20214;-68
2021/05/26 00:09:50;;;;;;;5.17;3.90;;;;;;;9.68;78.66;100444.75;5043477;28;20587;-67
2021/05/26 00:12:16;;;;;;;4.20;3.90;;;;;;;9.67;78.30;100448.38;5040022;28;20793;-68
2021/05/26 00:14:42;;;;;;;4.13;3.63;;;;;;;9.67;78.47;100448.38;5049830;28;20279;-68
2021/05/26 00:17:08;;;;;;;4.23;3.80;;;;;;;9.66;78.72;100447.53;5050483;28;20202;-68
2021/05/26 00:19:37;;;;;;;4.73;3.77;;;;;;;9.66;78.14;100441.34;5051384;28;20532;-67
2021/05/26 00:22:03;;;;;;;4.73;3.73;;;;;;;9.67;78.37;100435.91;5050422;28;20206;-67
2021/05/26 00:24:29;;;;;;;7.07;4.53;;;;;;;9.66;78.67;100436.91;5049397;28;20324;-68
2021/05/26 00:26:56;;;;;;;5.03;4.20;;;;;;;9.67;78.35;100435.09;5039335;28;20593;-68
2021/05/26 00:29:22;;;;;;;5.17;4.17;;;;;;;9.65;78.98;100429.88;5050158;28;20205;-68
2021/05/26 00:31:48;;;;;;;4.60;4.20;;;;;;;9.64;79.13;100430.81;5041699;28;20231;-67
2021/05/26 00:34:14;;;;;;;5.03;4.33;;;;;;;9.66;78.59;100438.69;5049861;28;20737;-68
2021/05/26 00:36:40;;;;;;;5.37;4.70;;;;;;;9.67;78.61;100424.44;5046667;28;20590;-69
2021/05/26 00:39:07;;;;;;;5.07;4.57;;;;;;;9.68;79.15;100439.44;5051322;28;20209;-68
2021/05/26 00:41:34;;;;;;;5.43;4.93;;;;;;;9.69;78.67;100431.34;5048062;28;20225;-66
2021/05/26 00:44:01;;;;;;;5.67;4.33;;;;;;;9.69;78.53;100427.84;5049836;28;20652;-68
2021/05/26 00:46:27;;;;;;;7.50;4.57;;;;;;;9.70;78.85;100438.38;5048637;28;20216;-68
2021/05/26 00:48:53;;;;;;;6.30;4.97;;;;;;;9.71;78.34;100429.47;5044851;28;20558;-68
2021/05/26 00:51:19;;;;;;;6.17;5.10;;;;;;;9.72;78.45;100428.50;5050814;28;20204;-68
2021/05/26 00:53:45;;;;;;;5.83;5.33;;;;;;;9.71;78.61;100417.97;5049695;28;20226;-66
2021/05/26 00:56:12;;;;;;;5.67;5.13;;;;;;;9.70;78.76;100430.41;5050267;28;20202;-68
2021/05/26 00:58:40;;;;;;;5.07;4.57;;;;;;;9.68;78.64;100418.16;5050831;28;20206;-69
2021/05/26 01:01:07;;;;;;;6.20;5.30;;;;;;;9.67;78.92;100435.91;5049580;28;20619;-68
2021/05/26 01:03:33;;;;;;;5.57;5.03;;;;;;;9.67;78.69;100427.13;5049836;28;20225;-68
2021/05/26 01:05:59;;;;;;;5.93;5.30;;;;;;;9.67;78.09;100424.44;5050406;28;20209;-68
2021/05/26 01:08:25;;;;;;;7.50;6.23;;;;;;;9.63;78.82;100418.47;5041927;28;20236;-68
2021/05/26 01:10:51;;;;;;;6.30;5.70;;;;;;;9.64;78.08;100417.53;5050086;28;20255;-67
2021/05/26 01:13:19;;;;;;;6.70;5.37;;;;;;;9.62;78.01;100414.09;5049315;28;20229;-68
2021/05/26 01:15:45;;;;;;;7.97;5.47;;;;;;;9.62;78.89;100413.25;5047124;28;20255;-68
2021/05/26 01:18:22;;;;;;;6.47;5.50;;;;;;;9.61;78.64;100409.72;5047769;28;20216;-68
2021/05/26 01:20:49;;;;;;;6.47;5.57;;;;;;;9.61;78.79;100409.72;5049803;28;20226;-68
2021/05/26 01:23:17;;;;;;;6.63;6.03;;;;;;;9.61;78.95;100400.91;5047592;28;20315;-68
2021/05/26 01:25:44;;;;;;;6.30;5.40;;;;;;;9.58;78.74;100407.25;5046816;28;21030;-68
2021/05/26 01:28:11;;;;;;;5.30;4.80;;;;;;;9.55;78.93;100402.13;5045644;28;20210;-67
2021/05/26 01:30:37;;;;;;;6.27;5.30;;;;;;;9.54;79.45;100400.41;5050129;28;20212;-68
2021/05/26 01:33:03;;;;;;;5.63;5.03;;;;;;;9.54;79.11;100407.53;5049665;28;20229;-68
2021/05/26 01:35:29;;;;;;;6.40;5.23;;;;;;;9.54;79.32;100399.56;5049005;28;20320;-67
2021/05/26 01:37:55;;;;;;;5.73;5.23;;;;;;;9.53;79.25;100401.38;5049839;28;20201;-68
2021/05/26 01:40:22;;;;;;;5.83;5.33;;;;;;;9.53;79.23;100405.84;5050256;28;20731;-68
2021/05/26 01:42:48;;;;;;;6.30;5.73;;;;;;;9.52;79.78;100402.31;5044269;28;20223;-67
2021/05/26 01:45:16;;;;;;;6.90;6.07;;;;;;;9.54;79.77;100400.41;5049964;28;20229;-68
2021/05/26 01:47:44;;;;;;;6.93;5.73;;;;;;;9.53;79.82;100400.50;5049196;28;20672;-68
2021/05/26 01:50:20;;;;;;;6.17;5.57;;;;;;;9.52;79.76;100393.50;5044814;28;20228;-68
2021/05/26 01:52:48;;;;;;;6.50;5.83;;;;;;;9.53;79.66;100397.84;5047924;28;20780;-68
2021/05/26 01:55:14;;;;;;;6.30;5.60;;;;;;;9.53;80.11;100400.50;5048336;28;20221;-68
2021/05/26 01:57:43;;;;;;;5.87;5.43;;;;;;;9.54;79.73;100400.41;5048448;28;20659;-68
2021/05/26 02:00:10;;;;;;;6.17;5.07;;;;;;;9.53;79.42;100397.84;5048465;28;20201;-67
2021/05/26 02:02:36;;;;;;;6.33;5.73;;;;;;;9.53;79.37;100409.34;5047560;28;20235;-68
2021/05/26 02:05:03;;;;;;;6.43;5.33;;;;;;;9.53;79.80;100405.84;5047992;28;20233;-67
2021/05/26 02:07:29;;;;;;;5.87;5.23;;;;;;;9.53;79.63;100406.69;5047803;28;20213;-67
2021/05/26 02:09:55;;;;;;;7.97;6.10;;;;;;;9.54;79.47;100407.53;5043057;28;20216;-67
2021/05/26 02:12:21;;;;;;;6.97;6.47;;;;;;;9.54;80.31;100392.44;5047002;28;20247;-67
2021/05/26 02:14:50;;;;;;;6.37;5.83;;;;;;;9.55;79.66;100394.16;5044896;28;20228;-68
2021/05/26 02:17:17;;;;;;;7.07;6.30;;;;;;;9.55;80.15;100390.63;5046672;28;20210;-67
2021/05/26 02:19:43;;;;;;;7.97;7.27;;;;;;;9.55;80.38;100387.97;5047630;28;20359;-67
2021/05/26 02:22:09;;;;;;;7.63;6.77;;;;;;;9.55;80.45;100391.50;5044793;28;20213;-68
2021/05/26 02:24:35;;;;;;;6.93;6.33;;;;;;;9.57;80.25;100383.44;5049191;28;20230;-67
2021/05/26 02:27:01;;;;;;;9.10;7.23;;;;;;;9.58;80.16;100391.31;5048972;28;20202;-67
2021/05/26 02:29:27;;;;;;;9.10;8.17;;;;;;;9.59;80.52;100382.38;5046045;28;20251;-68
2021/05/26 02:31:54;;;;;;;8.90;8.00;;;;;;;9.61;80.13;100384.94;5048314;28;20205;-68
2021/05/26 02:34:20;;;;;;;9.37;8.47;;;;;;;9.62;80.46;100387.50;5049017;28;20229;-68
2021/05/26 02:36:46;;;;;;;8.77;7.97;;;;;;;9.63;80.15;100385.72;5053274;28;20201;-68
2021/05/26 02:39:13;;;;;;;8.57;7.67;;;;;;;9.63;79.82;100383.03;5047653;28;20214;-67
2021/05/26 02:41:39;;;;;;;8.80;7.67;;;;;;;9.61;80.72;100374.31;5052508;28;20202;-68
2021/05/26 02:44:06;;;;;;;8.17;7.33;;;;;;;9.60;79.87;100381.44;5051930;28;20228;-67
2021/05/26 02:46:32;;;;;;;7.40;6.70;;;;;;;9.60;80.16;100378.78;5052837;28;20205;-68
2021/05/26 02:48:59;;;;;;;9.87;7.53;;;;;;;9.58;80.46;100378.00;5047211;28;20765;-68
2021/05/26 02:51:25;;;;;;;9.27;6.97;;;;;;;9.58;80.42;100374.50;5051312;28;20202;-68
2021/05/26 02:53:51;;;;;;;7.10;6.40;;;;;;;9.58;80.33;100386.00;5045445;28;20227;-68
2021/05/26 02:56:17;;;;;;;8.07;6.30;;;;;;;9.59;80.34;100376.22;5051421;28;20352;-68
2021/05/26 02:58:43;;;;;;;8.27;6.83;;;;;;;9.59;79.67;100382.38;5050062;28;20259;-67
2021/05/26 03:01:10;;;;;;;8.13;6.80;;;;;;;9.60;79.58;100372.59;5045800;28;20357;-67
2021/05/26 03:03:36;;;;;;;8.80;7.37;;;;;;;9.60;79.92;100378.78;5050208;28;20804;-68
2021/05/26 03:06:03;;;;;;;11.23;7.10;;;;;;;9.62;79.55;100376.03;5052672;28;20671;-67
2021/05/26 03:08:29;;;;;;;7.77;6.13;;;;;;;9.61;79.42;100372.50;5052263;28;20308;-68
2021/05/26 03:10:57;;;;;;;7.93;6.90;;;;;;;9.61;79.87;100379.63;5049286;28;20206;-69
2021/05/26 03:13:24;;;;;;;7.20;6.50;;;;;;;9.62;79.66;100370.69;5051500;28;20225;-66
2021/05/26 03:15:51;;;;;;;8.40;6.10;;;;;;;9.61;79.45;100374.31;5052909;28;20205;-67
2021/05/26 03:18:18;;;;;;;9.80;6.73;;;;;;;9.59;79.09;100376.22;5050572;28;20232;-68
2021/05/26 03:20:44;;;;;;;7.07;6.37;;;;;;;9.60;79.80;100369.94;5050583;28;20274;-67
2021/05/26 03:23:10;;;;;;;8.77;5.80;;;;;;;9.61;79.70;100379.63;5051740;28;20198;-67
2021/05/26 03:25:37;;;;;;;10.23;6.80;;;;;;;9.60;79.67;100378.78;5051767;28;20561;-67
2021/05/26 03:28:04;;;;;;;8.67;6.73;;;;;;;9.59;79.18;100371.75;5052507;28;20201;-67
2021/05/26 03:30:30;;;;;;;9.70;6.70;;;;;;;9.58;78.86;100377.16;5045003;28;20287;-67
2021/05/26 03:32:56;;;;;;;7.73;6.50;;;;;;;9.58;79.20;100374.50;5051675;28;20638;-68
2021/05/26 03:35:23;;;;;;;9.20;7.30;;;;;;;9.59;79.54;100376.22;5050889;28;20233;-67
2021/05/26 03:37:49;;;;;;;8.97;6.40;;;;;;;9.58;78.74;100372.69;5052305;28;20201;-69
2021/05/26 03:40:17;;;;;;;7.13;6.00;;;;;;;9.56;79.11;100363.97;5049888;28;20206;-68
2021/05/26 03:42:44;;;;;;;9.23;6.67;;;;;;;9.56;78.92;100360.44;5050595;28;20221;-67
2021/05/26 03:45:11;;;;;;;9.93;6.73;;;;;;;9.53;79.05;100369.47;5051524;28;20230;-68
2021/05/26 03:47:38;;;;;;;12.10;7.50;;;;;;;9.52;79.11;100365.09;5050976;28;20618;-69
2021/05/26 03:50:06;;;;;;;7.83;6.37;;;;;;;9.52;79.23;100358.94;5047803;28;20603;-68
2021/05/26 03:52:33;;;;;;;7.83;6.67;;;;;;;9.51;79.11;100370.50;5048536;28;20221;-68
2021/05/26 03:54:59;;;;;;;9.40;6.70;;;;;;;9.50;78.95;100367.00;5052051;28;20229;-67
2021/05/26 03:57:26;;;;;;;6.30;5.70;;;;;;;9.49;78.61;100367.97;5051185;28;20213;-68
2021/05/26 03:59:52;;;;;;;6.57;5.97;;;;;;;9.47;78.72;100366.38;5049238;28;20217;-65
2021/05/26 04:02:18;;;;;;;6.97;4.87;;;;;;;9.46;79.54;100367.31;5048221;28;20212;-67
2021/05/26 04:04:44;;;;;;;7.03;4.60;;;;;;;9.42;79.30;100369.31;5051126;28;20250;-67
2021/05/26 04:07:10;;;;;;;5.67;4.90;;;;;;;9.39;79.01;100362.38;5048360;28;20715;-68
2021/05/26 04:09:36;;;;;;;6.20;5.00;;;;;;;9.39;79.35;100362.38;5043276;28;20214;-66
2021/05/26 04:12:02;;;;;;;8.17;5.33;;;;;;;9.39;79.38;100358.84;5039789;28;20641;-67
2021/05/26 04:14:28;;;;;;;7.80;5.77;;;;;;;9.42;79.38;100374.63;5037575;28;20230;-66
2021/05/26 04:16:54;;;;;;;6.77;6.13;;;;;;;9.42;78.78;100369.31;5034865;28;20210;-67
2021/05/26 04:19:20;;;;;;;8.90;6.93;;;;;;;9.43;79.50;100360.38;5035740;28;20573;-67
2021/05/26 04:21:46;;;;;;;10.57;6.93;;;;;;;9.45;79.09;100365.59;5039066;28;20205;-67
2021/05/26 04:24:12;;;;;;;10.83;6.87;;;;;;;9.47;78.88;100364.56;5037070;28;20771;-67
2021/05/26 04:26:38;;;;;;;9.77;7.10;;;;;;;9.50;79.62;100360.81;5040146;28;20214;-68
2021/05/26 04:29:07;;;;;;;7.53;6.20;;;;;;;9.51;79.34;100362.53;5033043;28;20751;-68
2021/05/26 04:31:34;;;;;;;11.43;6.70;;;;;;;9.53;79.45;100356.19;5035824;28;20301;-67
2021/05/26 04:34:00;;;;;;;9.87;6.80;;;;;;;9.56;79.36;100349.81;5029988;28;20242;-68
2021/05/26 04:36:26;;;;;;;8.33;6.10;;;;;;;9.57;79.85;100348.88;5032301;28;20210;-67
2021/05/26 04:38:52;;;;;;;6.53;5.93;;;;;;;9.58;79.01;100343.44;5033460;28;20206;-67
2021/05/26 04:41:18;;;;;;;10.77;6.57;;;;;;;9.58;79.69;100346.09;5034120;28;20686;-67
2021/05/26 04:43:44;;;;;;;10.10;7.23;;;;;;;9.61;79.11;100350.38;5034108;28;20225;-66
2021/05/26 04:46:10;;;;;;;7.87;5.33;;;;;;;9.63;79.46;100345.81;5035159;28;20283;-67
2021/05/26 04:48:37;;;;;;;6.20;5.60;;;;;;;9.64;79.22;100348.38;5043803;28;20599;-67
2021/05/26 04:51:03;;;;;;;10.80;5.97;;;;;;;9.65;78.96;100352.75;5047667;28;20212;-67
2021/05/26 04:53:29;;;;;;;9.23;6.23;;;;;;;9.68;79.49;100349.88;5047475;28;20233;-67
2021/05/26 04:55:55;;;;;;;8.93;5.60;;;;;;;9.68;79.29;100349.00;5045541;28;20206;-67
2021/05/26 04:58:21;;;;;;;7.87;5.13;;;;;;;9.70;79.49;100341.78;5046394;28;20266;-68
2021/05/26 05:00:47;;;;;;;7.73;5.23;;;;;;;9.71;79.63;100347.03;5043788;28;20214;-67
2021/05/26 05:03:13;;;;;;;9.00;5.03;;;;;;;9.74;79.08;100338.84;5043846;28;20213;-67
2021/05/26 05:05:40;;;;;;;8.20;4.50;;;;;;;9.77;79.30;100339.59;5044113;28;20228;-67
2021/05/26 05:08:08;;;;;;;8.30;4.67;;;;;;;9.79;78.89;100343.88;5049982;28;20197;-66
2021/05/26 05:10:34;;;;;;;8.03;5.20;;;;;;;9.82;78.69;100335.72;5042121;28;20220;-67
2021/05/26 05:13:00;;;;;;;6.67;4.67;;;;;;;9.86;78.93;100336.34;5047091;28;20232;-68
2021/05/26 05:15:27;;;;;;;5.77;4.50;;;;;;;9.87;78.89;100338.91;5050089;28;20586;-68
2021/05/26 05:17:53;;;;;;;6.60;3.93;;;;;;;9.90;78.30;100348.50;5049708;28;20205;-67
2021/05/26 05:20:20;;;;;;;9.37;4.90;;;;;;;9.89;78.08;100337.00;5044538;28;20664;-66
2021/05/26 05:22:47;;;;;;;7.47;4.70;;;;;;;9.91;77.86;100342.22;5046333;28;20208;-67
2021/05/26 05:25:13;;;;;;;6.60;4.60;;;;;;;9.93;78.14;100342.97;5045164;28;20228;-69
2021/05/26 05:27:39;;;;;;;7.70;4.27;;;;;;;9.97;78.43;100339.16;5049864;28;20209;-69
2021/05/26 05:30:07;;;;;;;6.57;4.83;;;;;;;10.02;78.10;100342.38;5048619;28;20335;-69
2021/05/26 05:32:33;;;;;;;6.43;4.40;;;;;;;10.05;77.65;100343.00;5047475;28;20233;-69
2021/05/26 05:34:59;;;;;;;8.13;4.13;;;;;;;10.08;77.92;100336.63;5073952;22;20699;-74
2021/05/26 05:37:26;;;;;;;4.40;3.77;;;;;;;10.12;77.73;100342.63;5051620;28;20251;-74
2021/05/26 05:39:52;;;;;;;6.20;3.63;;;;;;;10.14;77.29;100346.88;5052191;28;20201;-74
2021/05/26 05:42:19;;;;;;;9.00;3.80;;;;;;;10.16;76.78;100344.13;5049883;28;20209;-74
2021/05/26 05:44:45;;;;;;;6.17;3.33;;;;;;;10.19;76.76;100343.97;5047157;28;20225;-74
2021/05/26 05:47:11;;;;;;;5.57;3.63;;;;;;;10.21;76.90;100348.19;5044796;28;20271;-74
2021/05/26 05:49:38;;;;;;;8.60;3.80;;;;;;;10.22;76.98;100341.06;5051286;28;20210;-74
2021/05/26 05:52:04;;;;;;;6.37;3.17;;;;;;;10.23;76.27;100340.97;5041166;28;20206;-74
2021/05/26 05:54:30;;;;;;;6.47;3.37;;;;;;;10.27;76.25;100330.97;5039366;28;20234;-74
2021/05/26 05:56:57;;;;;;;6.20;3.73;;;;;;;10.32;76.36;100334.19;5037223;28;20209;-74
2021/05/26 05:59:23;;;;;;;8.47;3.80;;;;;;;10.37;76.18;100329.41;5042484;28;20202;-74
2021/05/26 06:01:49;;;;;;;6.07;4.10;;;;;;;10.41;75.69;100326.41;5040438;28;20645;-75
2021/05/26 06:04:15;;;;;;;5.40;3.47;;;;;;;10.51;75.47;100320.50;5037745;28;20218;-75
2021/05/26 06:06:41;;;;;;;6.23;3.97;;;;;;;10.60;75.81;100323.34;5041261;28;20302;-74
2021/05/26 06:09:07;;;;;;;5.23;3.33;;;;;;;10.66;75.52;100320.28;5036791;28;20680;-75
2021/05/26 06:11:33;;;;;;;4.90;3.60;;;;;;;10.70;74.89;100324.44;5044088;28;20235;-74
2021/05/26 06:14:04;;;;;;;6.70;3.40;;;;;;;10.73;74.33;100316.25;5041288;28;20233;-74
2021/05/26 06:16:32;;;;;;;9.93;4.17;;;;;;;10.75;74.20;100313.44;5043395;28;20202;-74
2021/05/26 06:18:58;;;;;;;8.13;3.43;;;;;;;10.81;73.88;100313.03;5041835;28;20258;-74
2021/05/26 06:21:24;;;;;;;8.07;4.23;;;;;;;10.88;74.11;100314.31;5041326;28;20202;-74
2021/05/26 06:23:50;;;;;;;6.73;3.97;;;;;;;10.98;73.92;100311.84;5044459;28;20212;-74
2021/05/26 06:26:17;;;;;;;8.07;3.83;;;;;;;11.11;73.90;100304.69;5040963;28;20225;-75
2021/05/26 06:28:43;;;;;;;7.30;4.13;;;;;;;11.24;73.31;100305.53;5046336;28;20209;-74
2021/05/26 06:31:10;;;;;;;9.27;3.73;;;;;;;11.36;73.04;100294.00;5045408;28;20206;-74
2021/05/26 06:33:36;;;;;;;11.13;4.43;;;;;;;11.52;72.67;100311.53;5043685;28;20230;-74
2021/05/26 06:36:02;;;;;;;7.03;3.73;;;;;;;11.68;72.35;100294.31;5045152;28;20627;-74
2021/05/26 06:38:28;;;;;;;5.40;3.47;;;;;;;11.82;71.55;100299.50;5043400;28;20209;-74
2021/05/26 06:40:54;;;;;;;5.40;3.50;;;;;;;11.88;70.33;100294.69;5044573;28;20206;-73
2021/05/26 06:43:20;;;;;;;6.53;3.20;;;;;;;11.94;69.80;100294.25;5041308;28;20203;-74
2021/05/26 06:45:46;;;;;;;6.20;3.20;;;;;;;12.00;69.44;100285.78;5046235;28;20608;-74
2021/05/26 06:48:13;;;;;;;5.40;3.47;;;;;;;12.11;68.77;100293.81;5043763;28;20209;-74
2021/05/26 06:50:39;;;;;;;6.50;3.40;;;;;;;12.25;68.59;100295.44;5044763;28;20207;-73
2021/05/26 06:53:05;;;;;;;6.73;3.40;;;;;;;12.33;67.99;100291.25;5041353;28;20223;-75
2021/05/26 06:55:31;;;;;;;6.13;3.60;;;;;;;12.36;67.55;100282.16;5043403;28;20260;-73
2021/05/26 06:57:57;;;;;;;8.30;3.67;;;;;;;12.42;67.40;100289.66;5042251;28;20251;-75
2021/05/26 07:00:24;;;;;;;7.13;3.23;;;;;;;12.41;66.85;100283.47;5041864;28;20202;-73
2021/05/26 07:02:50;;;;;;;3.90;3.07;;;;;;;12.38;66.72;100280.19;5044851;28;20194;-74
2021/05/26 07:05:16;;;;;;;6.53;3.53;;;;;;;12.34;66.67;100284.94;5042600;28;20233;-74
2021/05/26 07:07:42;;;;;;;5.73;3.17;;;;;;;12.28;66.53;100271.19;5045395;28;20209;-74
2021/05/26 07:10:10;;;;;;;6.87;3.20;;;;;;;12.25;66.64;100279.41;5043072;28;20261;-74
2021/05/26 07:12:36;;;;;;;6.33;3.20;;;;;;;12.22;66.44;100285.00;5042339;28;20237;-73
2021/05/26 07:15:02;;;;;;;7.73;4.00;;;;;;;12.21;66.46;100276.13;5043428;28;20229;-74
2021/05/26 07:17:28;;;;;;;6.17;3.43;;;;;;;12.20;66.22;100270.91;5044417;28;20210;-73
2021/05/26 07:19:54;;;;;;;7.13;3.53;;;;;;;12.22;66.56;100274.31;5043686;28;20206;-74
2021/05/26 07:22:21;;;;;;;9.00;3.80;;;;;;;12.23;66.51;100276.00;5039946;28;20196;-74
2021/05/26 07:24:47;;;;;;;7.37;3.30;;;;;;;12.24;65.99;100267.88;5042889;28;20222;-74
2021/05/26 07:27:13;;;;;;;4.87;3.10;;;;;;;12.29;66.27;100275.56;5045028;28;20198;-75
2021/05/26 07:29:39;;;;;;;6.57;3.53;;;;;;;12.34;66.00;100266.25;5046201;28;20206;-74
2021/05/26 07:32:05;;;;;;;4.97;3.53;;;;;;;12.34;65.68;100260.03;5044804;28;20208;-74
2021/05/26 07:34:31;;;;;;;6.07;3.30;;;;;;;12.35;65.44;100267.09;5047452;28;20235;-74
2021/05/26 07:36:57;;;;;;;7.50;3.57;;;;;;;12.35;65.52;100264.41;5055017;28;20244;-74
2021/05/26 07:39:28;;;;;;;7.73;3.40;;;;;;;12.39;65.79;100269.38;5056077;28;20208;-74
2021/05/26 07:41:54;;;;;;;6.77;3.93;;;;;;;12.44;66.00;100275.22;5054307;28;20294;-73
2021/05/26 07:44:20;;;;;;;6.47;4.13;;;;;;;12.47;65.87;100274.16;5053479;28;20232;-74
2021/05/26 07:46:46;;;;;;;8.03;3.67;;;;;;;12.50;65.75;100272.09;5055872;28;20202;-74
2021/05/26 07:49:12;;;;;;;6.30;3.70;;;;;;;12.54;65.67;100267.34;5055637;28;20214;-74
2021/05/26 07:51:44;;;;;;;6.40;3.87;;;;;;;12.58;65.73;100279.50;5054983;28;20213;-74
2021/05/26 07:54:10;;;;;;;7.03;3.73;;;;;;;12.62;65.77;100274.78;5055813;28;20271;-74
2021/05/26 07:56:37;;;;;;;6.10;4.10;;;;;;;12.61;65.28;100275.75;5055817;28;20607;-74
2021/05/26 07:59:04;;;;;;;6.00;3.33;;;;;;;12.62;65.00;100274.78;5054565;28;20659;-73
2021/05/26 08:01:30;;;;;;;5.60;3.80;;;;;;;12.63;64.67;100269.31;5044533;28;20214;-74
2021/05/26 08:03:56;;;;;;;5.87;3.40;;;;;;;12.69;65.26;100271.53;5041938;28;20204;-74
2021/05/26 08:06:22;;;;;;;7.93;3.93;;;;;;;12.79;65.36;100264.47;5040893;28;20289;-74
2021/05/26 08:08:48;;;;;;;6.63;4.13;;;;;;;12.85;65.21;100279.19;5040052;28;20237;-74
2021/05/26 08:11:14;;;;;;;5.47;3.00;;;;;;;12.87;64.38;100274.56;5042635;28;20749;-74
2021/05/26 08:13:41;;;;;;;9.50;3.33;;;;;;;12.86;63.97;100270.19;5052523;28;20299;-74
2021/05/26 08:16:09;;;;;;;6.67;3.27;;;;;;;12.87;64.13;100277.25;5055016;28;20689;-73
2021/05/26 08:18:35;;;;;;;5.97;3.40;;;;;;;12.92;63.58;100276.84;5054804;28;20243;-73
2021/05/26 08:21:01;;;;;;;5.00;3.27;;;;;;;12.92;63.48;100280.38;5054038;28;20559;-74
2021/05/26 08:23:27;;;;;;;7.53;3.37;;;;;;;12.92;63.29;100263.50;5045988;28;20207;-73
2021/05/26 08:25:53;;;;;;;6.37;3.13;;;;;;;12.91;62.95;100267.13;5052241;28;20252;-74
2021/05/26 08:28:19;;;;;;;7.17;3.47;;;;;;;12.88;63.25;100262.91;5055821;28;20205;-74
2021/05/26 08:30:46;;;;;;;5.10;2.80;;;;;;;12.89;62.95;100263.75;5051880;28;20578;-74
2021/05/26 08:33:12;;;;;;;4.13;2.70;;;;;;;12.92;63.27;100271.50;5050344;28;20241;-74
2021/05/26 08:35:38;;;;;;;8.23;3.83;;;;;;;12.98;63.89;100263.88;5044509;28;20225;-73
2021/05/26 08:38:05;;;;;;;6.37;3.50;;;;;;;13.07;64.15;100264.97;5051465;28;20205;-74
2021/05/26 08:40:31;;;;;;;7.50;3.57;;;;;;;13.17;63.76;100255.25;5038364;28;20247;-73
2021/05/26 08:42:59;;;;;;;9.17;4.23;;;;;;;13.26;63.92;100257.19;5033982;28;20656;-74
2021/05/26 08:45:26;;;;;;;6.47;4.00;;;;;;;13.35;63.65;100256.44;5035235;28;20240;-73
2021/05/26 08:47:54;;;;;;;5.77;3.37;;;;;;;13.41;62.80;100255.13;5034177;28;20209;-74
2021/05/26 08:50:20;;;;;;;5.33;3.07;;;;;;;13.43;62.51;100247.81;5033417;28;20237;-73
2021/05/26 08:52:47;;;;;;;4.57;3.13;;;;;;;13.47;62.36;100241.22;5036622;28;20279;-73
2021/05/26 08:55:13;;;;;;;6.07;2.80;;;;;;;13.54;61.97;100243.28;5036260;28;20748;-73
2021/05/26 08:57:40;;;;;;;6.80;3.53;;;;;;;13.60;61.55;100239.25;5035764;28;20683;-74
2021/05/26 09:00:07;;;;;;;4.93;2.93;;;;;;;13.68;61.23;100239.47;5037166;28;20204;-74
2021/05/26 09:02:33;;;;;;;6.90;3.10;;;;;;;13.75;60.66;100240.66;5034498;28;20202;-73
2021/05/26 09:05:00;;;;;;;3.57;2.70;;;;;;;13.87;60.55;100226.25;5034619;28;20222;-74
2021/05/26 09:07:30;;;;;;;6.40;2.80;;;;;;;13.97;59.54;100225.50;5033900;28;20198;-73
2021/05/26 09:09:58;;;;;;;5.73;3.20;;;;;;;14.04;58.86;100237.38;5036135;28;20638;-74
2021/05/26 09:12:29;;;;;;;6.70;3.27;;;;;;;14.09;58.62;100238.69;5031914;28;20636;-73
2021/05/26 09:14:56;;;;;;;4.73;3.03;;;;;;;14.17;57.76;100230.00;5034605;28;20226;-74
2021/05/26 09:17:22;;;;;;;3.33;2.70;;;;;;;14.22;57.24;100235.81;5034049;28;20359;-73
2021/05/26 09:19:48;;;;;;;7.07;2.90;;;;;;;14.26;56.87;100226.53;5034928;28;20202;-73
2021/05/26 09:22:18;;;;;;;4.30;3.07;;;;;;;14.28;56.84;100235.31;5030226;28;20611;-74
2021/05/26 09:24:45;;;;;;;6.40;2.60;;;;;;;14.27;57.16;100224.72;5034350;28;20645;-74
2021/05/26 09:27:13;;;;;;;3.13;1.97;;;;;;;14.24;57.65;100236.53;5034995;28;20265;-74
2021/05/26 09:29:41;;;;;;;3.93;1.80;;;;;;;14.23;57.62;100238.34;5036134;28;20202;-75
2021/05/26 09:32:15;;;;;;;3.37;2.17;;;;;;;14.21;57.77;100234.97;5036039;28;20259;-74
2021/05/26 09:34:43;;;;;;;4.43;1.77;;;;;;;14.22;57.59;100235.81;5049866;28;20419;-74
2021/05/26 09:37:13;;;;;;;5.40;2.30;;;;;;;14.32;58.34;100244.78;5050202;28;20198;-74
2021/05/26 09:39:49;;;;;;;2.80;1.90;;;;;;;14.38;57.78;100230.00;5045612;28;20217;-74
2021/05/26 09:42:28;;;;;;;2.20;1.80;;;;;;;14.38;57.27;100230.84;5041829;28;20201;-74
2021/05/26 09:45:07;;;;;;;4.07;2.10;;;;;;;14.44;57.46;100230.34;5050638;28;20221;-74
2021/05/26 09:47:34;;;;;;;4.30;2.03;;;;;;;14.47;56.99;100230.09;5050504;28;20659;-74
2021/05/26 09:50:21;;;;;;;6.70;2.47;;;;;;;14.52;57.20;100221.63;5047529;28;20224;-74
2021/05/26 09:52:55;;;;;;;2.73;2.10;;;;;;;14.63;56.95;100218.03;5048803;28;20594;-74
2021/05/26 09:55:24;;;;;;;2.93;1.97;;;;;;;14.73;56.68;100214.41;5051038;28;20279;-74
2021/05/26 09:57:51;;;;;;;2.57;1.87;;;;;;;14.92;56.84;100208.28;5045783;28;20213;-74
2021/05/26 10:00:17;;;;;;;3.43;1.97;;;;;;;15.00;55.63;100208.47;5049552;28;20202;-74
2021/05/26 10:02:43;;;;;;;3.60;2.03;;;;;;;15.03;55.39;100213.56;5049584;28;20293;-73
2021/05/26 10:05:14;;;;;;;3.17;2.00;;;;;;;15.09;55.18;100204.97;5050503;28;20230;-74
2021/05/26 10:07:41;;;;;;;3.63;1.57;;;;;;;15.18;55.12;100201.47;5046543;28;20241;-73
2021/05/26 10:10:10;;;;;;;2.37;1.40;;;;;;;15.37;54.32;100197.97;5051162;28;20193;-74
2021/05/26 10:12:39;;;;;;;1.30;1.20;;;;;;;15.59;54.32;100192.38;5048559;28;20201;-74
2021/05/26 10:15:08;;;;;;;4.50;1.50;;;;;;;15.75;53.37;100197.19;5049642;28;20308;-74
2021/05/26 10:17:37;;;;;;;3.07;1.27;;;;;;;15.92;52.89;100191.13;5050072;28;20216;-74
2021/05/26 10:20:07;;;;;;;2.43;1.27;;;;;;;16.03;51.26;100189.25;5041946;28;20210;-74
2021/05/26 10:22:35;;;;;;;2.23;1.40;;;;;;;16.06;50.35;100186.28;5031032;28;20598;-74
2021/05/26 10:25:01;;;;;;;1.97;1.13;;;;;;;16.17;50.12;100186.13;5030419;28;20234;-73
2021/05/26 10:27:31;;;;;;;1.77;1.13;;;;;;;16.23;49.42;100186.41;5049941;28;20211;-74
2021/05/26 10:29:59;;;;;;;2.57;1.10;;;;;;;16.30;48.41;100189.38;5050372;28;20202;-73
2021/05/26 10:32:28;;;;;;;3.03;1.17;;;;;;;16.37;48.10;100192.31;5049445;28;20206;-74
2021/05/26 10:35:08;;;;;;;2.53;1.20;;;;;;;16.43;47.89;100181.84;5050246;28;20733;-74
2021/05/26 10:37:41;;;;;;;2.87;1.13;;;;;;;16.53;48.17;100179.94;5050226;28;20253;-74
2021/05/26 10:40:37;;;;;;;2.30;1.03;;;;;;;16.62;47.94;100184.47;5049489;28;20203;-73
2021/05/26 10:43:37;;;;;;;1.87;1.20;;;;;;;16.74;47.97;100178.91;5043450;28;20203;-74
2021/05/26 10:46:07;;;;;;;3.63;1.33;;;;;;;16.82;47.13;100174.50;5025741;28;20234;-74
2021/05/26 10:49:00;;;;;;;1.80;1.50;;;;;;;16.96;47.27;100183.91;5027564;28;20727;-73
2021/05/26 10:52:06;;;;;;;3.47;1.20;;;;;;;17.07;47.33;100178.31;5036400;28;20207;-74
2021/05/26 10:55:00;;;;;;;2.60;1.20;;;;;;;17.17;46.14;100181.81;5034897;28;20289;-74
2021/05/26 10:57:31;;;;;;;2.20;1.30;;;;;;;17.19;46.22;100179.84;5039029;28;20228;-73
2021/05/26 11:00:23;;;;;;;1.87;1.30;;;;;;;17.19;46.00;100171.75;5053469;28;20712;-75
2021/05/26 11:03:27;;;;;;;2.10;0.97;;;;;;;17.17;45.90;100178.28;5052548;28;20201;-74
2021/05/26 11:05:55;;;;;;;3.40;1.00;;;;;;;17.16;45.80;100169.38;5052993;28;20226;-73
2021/05/26 11:08:45;;;;;;;1.83;0.90;;;;;;;17.21;45.42;100158.13;5054114;28;20594;-74
2021/05/26 11:11:44;;;;;;;2.03;0.90;;;;;;;17.37;46.20;100161.03;5050904;28;20561;-74
2021/05/26 11:14:31;;;;;;;3.50;0.90;;;;;;;17.58;45.53;100172.31;5052859;28;20633;-74
2021/05/26 11:17:25;;;;;;;1.17;0.80;;;;;;;17.67;44.43;100179.50;5052873;28;20204;-74
2021/05/26 11:20:04;;;;;;;1.13;0.80;;;;;;;17.70;44.23;100167.59;5042434;28;20203;-75
2021/05/26 11:22:31;;;;;;;1.80;1.10;;;;;;;17.73;44.18;100161.91;5036694;28;20686;-74
2021/05/26 11:24:57;;;;;;;1.43;0.60;;;;;;;17.73;44.01;100161.06;5037473;28;20229;-75
2021/05/26 11:27:26;;;;;;;2.33;0.97;;;;;;;17.76;44.30;100168.81;5040072;28;20259;-74
2021/05/26 11:29:55;;;;;;;2.77;1.10;;;;;;;17.78;43.86;100164.94;5050666;28;20208;-75
2021/05/26 11:32:23;;;;;;;2.70;1.10;;;;;;;17.75;43.85;100169.81;5049471;28;20206;-74